createdAt,value
2024-03-26T00:00:53.674Z,3.54
2024-03-26T00:01:53.665Z,3.60
2024-03-26T00:02:53.675Z,3.65
2024-03-26T00:03:53.638Z,3.69
2024-03-26T00:04:53.598Z,3.72
2024-03-26T00:05:53.576Z,3.76
2024-03-26T00:06:53.618Z,3.86
2024-03-26T00:07:53.571Z,3.88
2024-03-26T00:08:53.614Z,3.90
2024-03-26T00:09:53.540Z,3.93
2024-03-26T00:10:53.578Z,3.94
2024-03-26T00:11:53.534Z,3.97
2024-03-26T00:12:53.522Z,4.05
2024-03-26T00:13:53.522Z,4.02
2024-03-26T00:14:53.568Z,4.00
2024-03-26T00:15:53.507Z,4.00
2024-03-26T00:16:53.493Z,3.98
2024-03-26T00:17:53.458Z,3.97
2024-03-26T00:18:53.466Z,3.96
2024-03-26T00:19:53.448Z,3.96
2024-03-26T00:20:53.449Z,3.96
2024-03-26T00:21:53.415Z,3.96
2024-03-26T00:22:53.392Z,3.98
2024-03-26T00:23:53.403Z,3.98
2024-03-26T00:24:53.400Z,3.98
2024-03-26T00:25:53.375Z,3.97
2024-03-26T00:26:53.381Z,3.88
2024-03-26T00:27:53.336Z,3.91
2024-03-26T00:28:53.330Z,3.96
2024-03-26T00:29:53.357Z,3.96
2024-03-26T00:30:53.313Z,3.97
2024-03-26T00:31:53.288Z,4.00
2024-03-26T00:32:53.287Z,4.04
2024-03-26T00:33:53.319Z,4.04
2024-03-26T00:34:53.331Z,4.05
2024-03-26T00:35:53.248Z,4.06
2024-03-26T00:36:53.252Z,4.09
2024-03-26T00:37:53.281Z,4.06
2024-03-26T00:38:53.261Z,4.06
2024-03-26T00:39:53.243Z,4.02
2024-03-26T00:40:53.215Z,4.00
2024-03-26T00:41:53.217Z,4.00
2024-03-26T00:42:53.166Z,4.00
2024-03-26T00:43:53.156Z,3.98
2024-03-26T00:44:53.176Z,3.94
2024-03-26T00:45:53.186Z,3.90
2024-03-26T00:46:53.179Z,3.90
2024-03-26T00:47:53.131Z,3.87
2024-03-26T00:48:53.112Z,3.87
2024-03-26T00:49:53.125Z,3.86
2024-03-26T00:50:53.093Z,3.84
2024-03-26T00:51:53.128Z,3.80
2024-03-26T00:52:53.087Z,3.79
2024-03-26T00:53:53.074Z,3.78
2024-03-26T00:54:53.081Z,3.78
2024-03-26T00:55:53.050Z,3.83
2024-03-26T00:56:53.032Z,3.86
2024-03-26T00:57:53.005Z,3.87
2024-03-26T00:58:52.986Z,3.90
2024-03-26T00:59:53.001Z,3.87
2024-03-26T01:00:53.014Z,3.87
2024-03-26T01:01:52.966Z,3.86
2024-03-26T01:02:52.962Z,3.76
2024-03-26T01:03:52.976Z,3.43
2024-03-26T01:04:52.964Z,3.33
2024-03-26T01:05:52.937Z,3.23
2024-03-26T01:06:52.945Z,3.08
2024-03-26T01:07:52.903Z,2.79
2024-03-26T01:08:52.921Z,2.46
2024-03-26T01:09:52.885Z,2.48
2024-03-26T01:10:52.910Z,2.57
2024-03-26T01:11:52.861Z,2.45
2024-03-26T01:12:52.843Z,2.43
2024-03-26T01:13:52.852Z,2.53
2024-03-26T01:14:52.859Z,2.64
2024-03-26T01:15:52.847Z,2.81
2024-03-26T01:16:52.799Z,2.87
2024-03-26T01:17:52.795Z,2.93
2024-03-26T01:18:52.793Z,2.96
2024-03-26T01:19:52.777Z,2.96
2024-03-26T01:20:52.847Z,2.92
2024-03-26T01:21:52.741Z,2.93
2024-03-26T01:22:52.758Z,2.89
2024-03-26T01:23:52.774Z,2.81
2024-03-26T01:24:52.721Z,2.82
2024-03-26T01:25:52.775Z,2.57
2024-03-26T01:26:52.697Z,2.45
2024-03-26T01:27:52.710Z,2.31
2024-03-26T01:28:52.721Z,2.28
2024-03-26T01:29:52.699Z,2.43
2024-03-26T01:30:52.693Z,2.56
2024-03-26T01:31:52.675Z,2.45
2024-03-26T01:32:52.656Z,2.43
2024-03-26T01:33:52.672Z,2.36
2024-03-26T01:34:52.605Z,2.35
2024-03-26T01:35:52.606Z,2.18
2024-03-26T01:36:52.635Z,2.16
2024-03-26T01:37:52.591Z,2.10
2024-03-26T01:38:52.562Z,1.91
2024-03-26T01:39:52.564Z,1.81
2024-03-26T01:40:52.541Z,1.72
2024-03-26T01:41:52.596Z,1.72
2024-03-26T01:42:52.539Z,1.73
2024-03-26T01:43:52.519Z,1.83
2024-03-26T01:44:52.533Z,1.99
2024-03-26T01:45:52.523Z,2.05
2024-03-26T01:46:52.546Z,2.10
2024-03-26T01:47:52.483Z,2.14
2024-03-26T01:48:52.502Z,2.10
2024-03-26T01:49:52.472Z,2.12
2024-03-26T01:50:52.447Z,2.21
2024-03-26T01:51:52.456Z,2.14
2024-03-26T01:52:52.458Z,2.16
2024-03-26T01:53:52.411Z,2.02
2024-03-26T01:54:52.425Z,2.00
2024-03-26T01:55:52.460Z,2.02
2024-03-26T01:56:52.381Z,2.03
2024-03-26T01:57:52.420Z,2.07
2024-03-26T01:58:52.352Z,2.18
2024-03-26T01:59:52.349Z,2.18
2024-03-26T02:00:52.364Z,2.27
2024-03-26T02:01:52.329Z,2.28
2024-03-26T02:02:52.348Z,2.23
2024-03-26T02:03:52.328Z,2.20
2024-03-26T02:04:52.332Z,2.07
2024-03-26T02:05:52.306Z,2.06
2024-03-26T02:06:52.314Z,2.10
2024-03-26T02:07:52.467Z,2.16
2024-03-26T02:08:52.251Z,2.18
2024-03-26T02:09:52.284Z,2.27
2024-03-26T02:10:52.255Z,2.42
2024-03-26T02:11:52.234Z,2.38
2024-03-26T02:12:52.287Z,2.35
2024-03-26T02:13:52.319Z,2.34
2024-03-26T02:14:52.203Z,2.27
2024-03-26T02:15:52.195Z,2.34
2024-03-26T02:16:52.220Z,2.41
2024-03-26T02:17:52.219Z,2.43
2024-03-26T02:18:52.151Z,2.49
2024-03-26T02:19:52.170Z,2.63
2024-03-26T02:20:52.139Z,2.78
2024-03-26T02:21:52.159Z,2.89
2024-03-26T02:22:52.140Z,2.97
2024-03-26T02:23:52.128Z,3.06
2024-03-26T02:24:52.091Z,3.13
2024-03-26T02:25:52.082Z,3.14
2024-03-26T02:26:52.102Z,3.20
2024-03-26T02:27:52.093Z,3.23
2024-03-26T02:28:52.090Z,3.26
2024-03-26T02:29:52.081Z,3.26
2024-03-26T02:30:52.048Z,3.26
2024-03-26T02:31:52.019Z,3.26
2024-03-26T02:32:52.029Z,3.28
2024-03-26T02:33:52.055Z,3.28
2024-03-26T02:34:52.019Z,3.24
2024-03-26T02:35:52.037Z,3.31
2024-03-26T02:36:51.970Z,3.26
2024-03-26T02:37:51.964Z,3.26
2024-03-26T02:38:51.943Z,3.24
2024-03-26T02:39:51.986Z,3.23
2024-03-26T02:40:51.940Z,3.21
2024-03-26T02:41:51.965Z,3.24
2024-03-26T02:42:51.967Z,3.24
2024-03-26T02:43:51.909Z,3.28
2024-03-26T02:44:51.939Z,3.26
2024-03-26T02:45:51.893Z,3.28
2024-03-26T02:46:51.876Z,3.29
2024-03-26T02:47:51.860Z,3.31
2024-03-26T02:48:51.851Z,3.31
2024-03-26T02:49:51.862Z,3.28
2024-03-26T02:50:51.827Z,3.28
2024-03-26T02:51:51.834Z,3.26
2024-03-26T02:52:51.878Z,3.24
2024-03-26T02:53:51.856Z,3.24
2024-03-26T02:54:51.820Z,3.24
2024-03-26T02:55:51.778Z,3.26
2024-03-26T02:56:51.762Z,3.28
2024-03-26T02:57:51.832Z,3.26
2024-03-26T02:58:51.743Z,3.28
2024-03-26T02:59:51.859Z,3.21
2024-03-26T03:00:51.742Z,3.24
2024-03-26T03:01:51.732Z,3.26
2024-03-26T03:02:51.754Z,3.24
2024-03-26T03:03:51.757Z,3.24
2024-03-26T03:04:51.693Z,3.23
2024-03-26T03:05:51.693Z,3.21
2024-03-26T03:06:51.671Z,3.24
2024-03-26T03:07:51.687Z,3.21
2024-03-26T03:08:51.666Z,3.24
2024-03-26T03:09:51.688Z,3.20
2024-03-26T03:10:51.624Z,3.18
2024-03-26T03:11:51.660Z,3.13
2024-03-26T03:12:51.638Z,3.10
2024-03-26T03:13:51.628Z,3.06
2024-03-26T03:14:51.591Z,3.05
2024-03-26T03:15:51.596Z,3.05
2024-03-26T03:16:51.610Z,2.99
2024-03-26T03:17:51.568Z,2.99
2024-03-26T03:18:51.575Z,3.00
2024-03-26T03:19:51.578Z,2.99
2024-03-26T03:20:51.614Z,3.00
2024-03-26T03:21:51.559Z,3.02
2024-03-26T03:22:51.516Z,3.00
2024-03-26T03:23:51.559Z,2.99
2024-03-26T03:24:51.487Z,2.96
2024-03-26T03:25:51.559Z,2.99
2024-03-26T03:26:51.475Z,2.96
2024-03-26T03:27:51.471Z,2.97
2024-03-26T03:28:51.464Z,2.95
2024-03-26T03:29:51.452Z,2.95
2024-03-26T03:30:51.477Z,2.95
2024-03-26T03:31:51.469Z,2.93
2024-03-26T03:32:51.506Z,2.92
2024-03-26T03:33:51.411Z,2.89
2024-03-26T03:34:51.387Z,2.90
2024-03-26T03:35:51.499Z,2.85
2024-03-26T03:36:51.393Z,2.87
2024-03-26T03:37:51.395Z,2.84
2024-03-26T03:38:51.344Z,2.82
2024-03-26T03:39:52.286Z,2.84
2024-03-26T03:40:51.357Z,2.84
2024-03-26T03:41:51.351Z,2.84
2024-03-26T03:42:51.330Z,2.84
2024-03-26T03:43:51.332Z,2.81
2024-03-26T03:44:51.332Z,2.82
2024-03-26T03:45:51.288Z,2.82
2024-03-26T03:46:51.271Z,2.79
2024-03-26T03:47:51.294Z,2.79
2024-03-26T03:48:51.251Z,2.77
2024-03-26T03:49:51.247Z,2.75
2024-03-26T03:50:51.272Z,2.77
2024-03-26T03:51:51.255Z,2.78
2024-03-26T03:52:51.307Z,2.77
2024-03-26T03:53:53.562Z,2.75
2024-03-26T03:54:51.204Z,2.72
2024-03-26T03:55:51.182Z,2.69
2024-03-26T03:56:51.194Z,2.64
2024-03-26T03:57:51.176Z,2.61
2024-03-26T03:58:51.225Z,2.60
2024-03-26T03:59:51.172Z,2.57
2024-03-26T04:00:51.147Z,2.56
2024-03-26T04:01:51.154Z,2.57
2024-03-26T04:02:51.179Z,2.54
2024-03-26T04:03:51.100Z,2.54
2024-03-26T04:04:51.092Z,2.59
2024-03-26T04:05:51.109Z,2.59
2024-03-26T04:06:51.064Z,2.61
2024-03-26T04:07:51.075Z,2.61
2024-03-26T04:08:51.093Z,2.67
2024-03-26T04:09:51.056Z,2.71
2024-03-26T04:10:51.044Z,2.69
2024-03-26T04:11:52.711Z,2.75
2024-03-26T04:12:51.049Z,2.78
2024-03-26T04:13:51.066Z,2.81
2024-03-26T04:14:51.052Z,2.84
2024-03-26T04:15:51.003Z,2.87
2024-03-26T04:16:50.964Z,2.92
2024-03-26T04:17:51.004Z,2.92
2024-03-26T04:18:50.942Z,2.96
2024-03-26T04:19:50.942Z,2.99
2024-03-26T04:20:50.969Z,3.00
2024-03-26T04:21:50.936Z,3.06
2024-03-26T04:22:50.909Z,3.10
2024-03-26T04:23:51.037Z,3.13
2024-03-26T04:24:50.880Z,3.14
2024-03-26T04:25:50.871Z,3.17
2024-03-26T04:26:50.890Z,3.20
2024-03-26T04:27:50.872Z,3.21
2024-03-26T04:28:50.865Z,3.23
2024-03-26T04:29:50.917Z,3.24
2024-03-26T04:30:50.827Z,3.24
2024-03-26T04:31:50.818Z,3.23
2024-03-26T04:32:50.847Z,3.24
2024-03-26T04:33:50.842Z,3.23
2024-03-26T04:34:50.778Z,3.24
2024-03-26T04:35:50.788Z,3.26
2024-03-26T04:36:50.797Z,3.32
2024-03-26T04:37:50.753Z,3.31
2024-03-26T04:38:50.781Z,3.28
2024-03-26T04:39:50.753Z,3.33
2024-03-26T04:40:50.728Z,3.35
2024-03-26T04:41:50.794Z,3.35
2024-03-26T04:42:50.698Z,3.39
2024-03-26T04:43:50.763Z,3.40
2024-03-26T04:44:50.703Z,3.42
2024-03-26T04:45:53.457Z,3.45
2024-03-26T04:46:50.687Z,3.45
2024-03-26T04:47:50.705Z,3.43
2024-03-26T04:48:50.676Z,3.47
2024-03-26T04:49:50.636Z,3.52
2024-03-26T04:50:50.634Z,3.57
2024-03-26T04:51:50.625Z,3.61
2024-03-26T04:52:50.602Z,3.61
2024-03-26T04:53:50.630Z,3.61
2024-03-26T04:54:50.608Z,3.61
2024-03-26T04:55:50.577Z,3.60
2024-03-26T04:56:50.582Z,3.62
2024-03-26T04:57:50.562Z,3.60
2024-03-26T04:58:50.593Z,3.61
2024-03-26T04:59:50.530Z,3.58
2024-03-26T05:00:50.563Z,3.58
2024-03-26T05:01:50.532Z,3.57
2024-03-26T05:02:50.516Z,3.55
2024-03-26T05:03:50.543Z,3.57
2024-03-26T05:04:50.532Z,3.52
2024-03-26T05:05:50.576Z,3.52
2024-03-26T05:06:50.461Z,3.52
2024-03-26T05:07:50.486Z,3.50
2024-03-26T05:08:50.454Z,3.48
2024-03-26T05:09:50.475Z,3.45
2024-03-26T05:10:50.498Z,3.42
2024-03-26T05:11:50.445Z,3.39
2024-03-26T05:12:50.395Z,3.36
2024-03-26T05:13:50.441Z,3.35
2024-03-26T05:14:50.419Z,3.35
2024-03-26T05:15:50.403Z,3.35
2024-03-26T05:16:50.365Z,3.36
2024-03-26T05:17:50.313Z,3.35
2024-03-26T05:18:50.340Z,3.33
2024-03-26T05:19:50.353Z,3.31
2024-03-26T05:20:50.337Z,3.23
2024-03-26T05:21:50.345Z,3.20
2024-03-26T05:22:50.301Z,3.14
2024-03-26T05:23:50.290Z,3.10
2024-03-26T05:24:50.296Z,3.10
2024-03-26T05:25:50.298Z,3.13
2024-03-26T05:26:50.284Z,3.14
2024-03-26T05:27:50.240Z,3.13
2024-03-26T05:28:51.714Z,3.14
2024-03-26T05:29:50.192Z,3.11
2024-03-26T05:30:50.188Z,3.11
2024-03-26T05:31:50.223Z,3.15
2024-03-26T05:32:50.220Z,3.17
2024-03-26T05:33:50.206Z,3.21
2024-03-26T05:34:50.193Z,3.24
2024-03-26T05:35:50.167Z,3.26
2024-03-26T05:36:50.118Z,3.31
2024-03-26T05:37:50.127Z,3.33
2024-03-26T05:38:50.106Z,3.32
2024-03-26T05:39:50.121Z,3.36
2024-03-26T05:40:50.142Z,3.39
2024-03-26T05:41:50.044Z,3.40
2024-03-26T05:42:50.049Z,3.42
2024-03-26T05:43:50.062Z,3.36
2024-03-26T05:44:50.042Z,3.42
2024-03-26T05:45:50.042Z,3.40
2024-03-26T05:46:50.021Z,3.40
2024-03-26T05:47:50.039Z,3.40
2024-03-26T05:48:50.016Z,3.45
2024-03-26T05:49:49.977Z,3.43
2024-03-26T05:50:49.994Z,3.43
2024-03-26T05:51:50.000Z,3.45
2024-03-26T05:52:49.991Z,3.47
2024-03-26T05:53:50.065Z,3.47
2024-03-26T05:54:49.912Z,3.52
2024-03-26T05:55:49.949Z,3.51
2024-03-26T05:56:49.937Z,3.50
2024-03-26T05:57:49.966Z,3.52
2024-03-26T05:58:49.890Z,3.52
2024-03-26T05:59:49.888Z,3.54
2024-03-26T06:00:49.870Z,3.54
2024-03-26T06:01:49.919Z,3.54
2024-03-26T06:02:49.843Z,3.52
2024-03-26T06:03:49.866Z,3.54
2024-03-26T06:04:49.841Z,3.55
2024-03-26T06:05:49.823Z,3.57
2024-03-26T06:06:49.840Z,3.57
2024-03-26T06:07:49.825Z,3.57
2024-03-26T06:08:49.842Z,3.57
2024-03-26T06:09:49.776Z,3.57
2024-03-26T06:10:49.770Z,3.57
2024-03-26T06:11:49.806Z,3.58
2024-03-26T06:12:49.751Z,3.61
2024-03-26T06:13:49.762Z,3.60
2024-03-26T06:14:49.734Z,3.61
2024-03-26T06:15:49.710Z,3.62
2024-03-26T06:16:49.704Z,3.66
2024-03-26T06:17:49.772Z,3.66
2024-03-26T06:18:49.738Z,3.69
2024-03-26T06:19:49.739Z,3.70
2024-03-26T06:20:49.692Z,3.69
2024-03-26T06:21:49.656Z,3.72
2024-03-26T06:22:49.683Z,3.75
2024-03-26T06:23:49.638Z,3.72
2024-03-26T06:24:49.643Z,3.73
2024-03-26T06:25:49.627Z,3.75
2024-03-26T06:26:49.601Z,3.80
2024-03-26T06:27:49.619Z,3.83
2024-03-26T06:28:49.641Z,3.87
2024-03-26T06:29:49.659Z,3.87
2024-03-26T06:30:49.625Z,3.87
2024-03-26T06:31:49.595Z,3.90
2024-03-26T06:32:49.702Z,3.91
2024-03-26T06:33:49.710Z,3.90
2024-03-26T06:34:49.580Z,3.93
2024-03-26T06:35:49.620Z,3.93
2024-03-26T06:36:49.633Z,3.97
2024-03-26T06:37:49.608Z,3.96
2024-03-26T06:38:49.586Z,3.98
2024-03-26T06:39:49.543Z,3.98
2024-03-26T06:40:49.548Z,4.02
2024-03-26T06:41:49.570Z,4.04
2024-03-26T06:42:49.526Z,4.06
2024-03-26T06:43:49.764Z,4.09
2024-03-26T06:44:49.609Z,4.09
2024-03-26T06:45:49.428Z,4.11
2024-03-26T06:46:49.437Z,4.12
2024-03-26T06:47:49.405Z,4.14
2024-03-26T06:48:49.382Z,4.16
2024-03-26T06:49:49.358Z,4.16
2024-03-26T06:50:49.344Z,4.20
2024-03-26T06:51:49.316Z,4.23
2024-03-26T06:52:49.310Z,4.24
2024-03-26T06:53:49.307Z,4.29
2024-03-26T06:54:49.312Z,4.29
2024-03-26T06:55:49.272Z,4.30
2024-03-26T06:56:49.302Z,4.32
2024-03-26T06:57:49.257Z,4.33
2024-03-26T06:58:49.259Z,4.36
2024-03-26T06:59:49.242Z,4.40
2024-03-26T07:00:49.244Z,4.40
2024-03-26T07:01:49.245Z,4.40
2024-03-26T07:02:49.211Z,4.40
2024-03-26T07:03:49.192Z,4.45
2024-03-26T07:04:49.215Z,4.48
2024-03-26T07:05:49.161Z,4.50
2024-03-26T07:06:49.177Z,4.48
2024-03-26T07:07:49.158Z,4.48
2024-03-26T07:08:49.158Z,4.50
2024-03-26T07:09:49.312Z,4.54
2024-03-26T07:10:49.297Z,4.51
2024-03-26T07:11:49.114Z,4.55
2024-03-26T07:12:49.164Z,4.55
2024-03-26T07:13:49.099Z,4.55
2024-03-26T07:14:49.076Z,4.59
2024-03-26T07:15:49.083Z,4.59
2024-03-26T07:16:49.052Z,4.63
2024-03-26T07:17:49.061Z,4.69
2024-03-26T07:18:51.334Z,4.72
2024-03-26T07:19:49.062Z,4.80
2024-03-26T07:20:49.105Z,4.85
2024-03-26T07:21:49.026Z,4.94
2024-03-26T07:22:48.990Z,4.99
2024-03-26T07:23:48.988Z,5.04
2024-03-26T07:24:49.017Z,5.10
2024-03-26T07:25:48.982Z,5.18
2024-03-26T07:26:48.941Z,5.21
2024-03-26T07:27:48.939Z,5.25
2024-03-26T07:28:48.930Z,5.24
2024-03-26T07:29:48.905Z,5.24
2024-03-26T07:30:48.939Z,5.25
2024-03-26T07:31:48.884Z,5.27
2024-03-26T07:32:48.879Z,5.27
2024-03-26T07:33:48.897Z,5.27
2024-03-26T07:34:48.871Z,5.30
2024-03-26T07:35:48.872Z,5.31
2024-03-26T07:36:48.836Z,5.33
2024-03-26T07:37:48.822Z,5.35
2024-03-26T07:38:48.819Z,5.38
2024-03-26T07:39:48.820Z,5.38
2024-03-26T07:40:48.856Z,5.39
2024-03-26T07:41:48.954Z,5.43
2024-03-26T07:42:48.775Z,5.45
2024-03-26T07:43:48.757Z,5.45
2024-03-26T07:44:48.752Z,5.46
2024-03-26T07:45:48.753Z,5.43
2024-03-26T07:46:48.730Z,5.49
2024-03-26T07:47:48.718Z,5.53
2024-03-26T07:48:48.705Z,5.51
2024-03-26T07:49:48.697Z,5.56
2024-03-26T07:50:48.717Z,5.53
2024-03-26T07:51:48.722Z,5.49
2024-03-26T07:52:48.700Z,5.46
2024-03-26T07:53:48.744Z,5.49
2024-03-26T07:54:48.651Z,5.58
2024-03-26T07:55:48.643Z,5.63
2024-03-26T07:56:48.614Z,5.67
2024-03-26T07:57:48.624Z,5.68
2024-03-26T07:58:48.676Z,5.67
2024-03-26T07:59:48.716Z,5.71
2024-03-26T08:00:48.592Z,5.72
2024-03-26T08:01:48.595Z,5.75
2024-03-26T08:02:48.557Z,5.79
2024-03-26T08:03:48.544Z,5.76
2024-03-26T08:04:48.531Z,5.78
2024-03-26T08:05:48.521Z,5.76
2024-03-26T08:06:48.553Z,5.82
2024-03-26T08:07:48.515Z,5.81
2024-03-26T08:08:48.531Z,5.83
2024-03-26T08:09:48.562Z,5.89
2024-03-26T08:10:48.494Z,5.90
2024-03-26T08:11:48.520Z,5.99
2024-03-26T08:12:48.455Z,6.03
2024-03-26T08:13:48.435Z,6.00
2024-03-26T08:14:48.422Z,6.01
2024-03-26T08:15:48.494Z,6.03
2024-03-26T08:16:48.435Z,6.04
2024-03-26T08:17:48.436Z,6.03
2024-03-26T08:18:48.386Z,5.97
2024-03-26T08:19:48.361Z,5.96
2024-03-26T08:20:48.397Z,5.99
2024-03-26T08:21:48.350Z,5.99
2024-03-26T08:22:48.379Z,5.97
2024-03-26T08:23:48.386Z,5.96
2024-03-26T08:24:48.363Z,5.96
2024-03-26T08:25:48.325Z,5.93
2024-03-26T08:26:48.301Z,5.97
2024-03-26T08:27:48.285Z,5.96
2024-03-26T08:28:48.309Z,5.93
2024-03-26T08:29:48.266Z,5.93
2024-03-26T08:30:48.261Z,5.96
2024-03-26T08:31:48.266Z,5.96
2024-03-26T08:32:48.233Z,5.97
2024-03-26T08:33:48.250Z,5.99
2024-03-26T08:34:48.229Z,6.00
2024-03-26T08:35:48.265Z,6.08
2024-03-26T08:36:48.200Z,6.15
2024-03-26T08:37:48.215Z,6.17
2024-03-26T08:38:48.268Z,6.28
2024-03-26T08:39:48.167Z,6.28
2024-03-26T08:40:48.158Z,6.27
2024-03-26T08:41:48.150Z,6.30
2024-03-26T08:42:48.164Z,6.38
2024-03-26T08:43:48.117Z,6.43
2024-03-26T08:44:48.145Z,6.51
2024-03-26T08:45:48.111Z,6.58
2024-03-26T08:46:48.103Z,6.62
2024-03-26T08:47:48.137Z,6.67
2024-03-26T08:48:48.095Z,6.73
2024-03-26T08:49:48.070Z,6.84
2024-03-26T08:50:48.094Z,7.02
2024-03-26T08:51:48.858Z,7.17
2024-03-26T08:52:48.032Z,7.35
2024-03-26T08:53:48.023Z,7.34
2024-03-26T08:54:48.044Z,7.39
2024-03-26T08:55:47.998Z,7.55
2024-03-26T08:56:47.984Z,7.57
2024-03-26T08:57:47.983Z,7.46
2024-03-26T08:58:47.967Z,7.40
2024-03-26T08:59:47.989Z,7.35
2024-03-26T09:00:48.012Z,7.48
2024-03-26T09:01:48.325Z,7.49
2024-03-26T09:02:47.929Z,7.50
2024-03-26T09:03:47.934Z,7.52
2024-03-26T09:04:47.913Z,7.53
2024-03-26T09:05:47.893Z,7.48
2024-03-26T09:06:47.890Z,7.40
2024-03-26T09:07:47.876Z,7.39
2024-03-26T09:08:47.879Z,7.39
2024-03-26T09:09:47.858Z,7.34
2024-03-26T09:10:47.867Z,7.27
2024-03-26T09:11:47.827Z,7.23
2024-03-26T09:12:47.824Z,7.20
2024-03-26T09:13:47.843Z,7.09
2024-03-26T09:14:47.797Z,6.98
2024-03-26T09:15:47.809Z,6.97
2024-03-26T09:16:47.774Z,6.95
2024-03-26T09:17:47.800Z,6.97
2024-03-26T09:18:47.751Z,6.97
2024-03-26T09:19:47.751Z,7.05
2024-03-26T09:20:47.761Z,7.05
2024-03-26T09:21:47.754Z,7.10
2024-03-26T09:22:47.723Z,7.16
2024-03-26T09:23:47.705Z,7.20
2024-03-26T09:24:50.781Z,7.15
2024-03-26T09:25:47.686Z,7.20
2024-03-26T09:26:47.696Z,7.15
2024-03-26T09:27:47.676Z,7.16
2024-03-26T09:28:47.651Z,7.17
2024-03-26T09:29:47.649Z,7.20
2024-03-26T09:30:47.656Z,7.20
2024-03-26T09:31:47.660Z,7.16
2024-03-26T09:32:47.619Z,7.17
2024-03-26T09:33:47.605Z,7.21
2024-03-26T09:34:48.116Z,7.21
2024-03-26T09:35:48.150Z,7.25
2024-03-26T09:36:47.571Z,7.28
2024-03-26T09:37:47.551Z,7.31
2024-03-26T09:38:49.196Z,7.34
2024-03-26T09:39:47.531Z,7.45
2024-03-26T09:40:47.556Z,7.43
2024-03-26T09:41:47.517Z,7.46
2024-03-26T09:42:47.521Z,7.53
2024-03-26T09:43:47.555Z,7.53
2024-03-26T09:44:55.135Z,7.53
2024-03-26T09:45:47.479Z,7.52
2024-03-26T09:46:47.458Z,7.53
2024-03-26T09:47:47.450Z,7.57
2024-03-26T09:48:47.454Z,7.64
2024-03-26T09:49:47.457Z,7.72
2024-03-26T09:50:47.414Z,7.74
2024-03-26T09:51:47.410Z,7.79
2024-03-26T09:52:47.395Z,7.80
2024-03-26T09:53:47.411Z,7.85
2024-03-26T09:54:47.397Z,7.83
2024-03-26T09:55:47.364Z,7.85
2024-03-26T09:56:47.356Z,7.85
2024-03-26T09:57:47.347Z,7.83
2024-03-26T09:58:47.329Z,7.83
2024-03-26T09:59:47.350Z,7.89
2024-03-26T10:00:47.318Z,7.92
2024-03-26T10:01:47.300Z,7.97
2024-03-26T10:02:47.280Z,8.01
2024-03-26T10:03:47.297Z,8.04
2024-03-26T10:04:47.291Z,8.07
2024-03-26T10:05:47.253Z,8.15
2024-03-26T10:06:47.238Z,8.16
2024-03-26T10:07:47.240Z,8.15
2024-03-26T10:08:47.219Z,8.08
2024-03-26T10:09:47.234Z,8.04
2024-03-26T10:10:47.193Z,8.10
2024-03-26T10:11:47.205Z,8.11
2024-03-26T10:12:47.179Z,8.15
2024-03-26T10:13:47.183Z,8.15
2024-03-26T10:14:48.083Z,8.16
2024-03-26T10:15:47.148Z,8.22
2024-03-26T10:16:47.144Z,8.26
2024-03-26T10:17:47.120Z,8.28
2024-03-26T10:18:47.142Z,8.26
2024-03-26T10:19:47.126Z,8.34
2024-03-26T10:20:47.091Z,8.36
2024-03-26T10:21:47.130Z,8.38
2024-03-26T10:22:49.553Z,8.38
2024-03-26T10:23:47.057Z,8.43
2024-03-26T10:24:47.089Z,8.43
2024-03-26T10:25:47.044Z,8.37
2024-03-26T10:26:47.011Z,8.38
2024-03-26T10:27:47.046Z,8.38
2024-03-26T10:28:46.998Z,8.40
2024-03-26T10:29:47.025Z,8.38
2024-03-26T10:30:47.003Z,8.37
2024-03-26T10:31:46.974Z,8.36
2024-03-26T10:32:46.953Z,8.38
2024-03-26T10:33:46.970Z,8.43
2024-03-26T10:34:46.997Z,8.38
2024-03-26T10:35:46.950Z,8.41
2024-03-26T10:36:46.926Z,8.40
2024-03-26T10:37:46.959Z,8.38
2024-03-26T10:38:57.082Z,8.38
2024-03-26T10:39:46.878Z,8.38
2024-03-26T10:40:46.901Z,8.37
2024-03-26T10:41:46.889Z,8.36
2024-03-26T10:42:46.854Z,8.34
2024-03-26T10:43:46.845Z,8.33
2024-03-26T10:44:46.820Z,8.33
2024-03-26T10:45:59.971Z,8.29
2024-03-26T10:46:49.084Z,8.28
2024-03-26T10:47:46.818Z,8.19
2024-03-26T10:48:54.325Z,8.12
2024-03-26T10:49:46.798Z,8.15
2024-03-26T10:50:46.787Z,8.11
2024-03-26T10:51:46.789Z,8.12
2024-03-26T10:52:46.734Z,8.12
2024-03-26T10:53:46.733Z,8.15
2024-03-26T10:54:46.745Z,8.16
2024-03-26T10:55:46.736Z,8.18
2024-03-26T10:56:46.730Z,8.18
2024-03-26T10:57:46.682Z,8.19
2024-03-26T10:58:46.683Z,8.18
2024-03-26T10:59:46.671Z,8.16
2024-03-26T11:00:46.720Z,8.18
2024-03-26T11:01:46.698Z,8.20
2024-03-26T11:02:46.626Z,8.20
2024-03-26T11:03:46.634Z,8.22
2024-03-26T11:04:46.629Z,8.25
2024-03-26T11:05:46.676Z,8.26
2024-03-26T11:06:46.587Z,8.28
2024-03-26T11:07:46.616Z,8.29
2024-03-26T11:08:46.572Z,8.33
2024-03-26T11:09:46.559Z,8.37
2024-03-26T11:10:46.534Z,8.40
2024-03-26T11:11:46.558Z,8.36
2024-03-26T11:12:46.525Z,8.36
2024-03-26T11:13:53.021Z,8.38
2024-03-26T11:14:46.523Z,8.38
2024-03-26T11:15:46.479Z,8.37
2024-03-26T11:16:46.525Z,8.38
2024-03-26T11:17:46.512Z,8.41
2024-03-26T11:18:46.456Z,8.40
2024-03-26T11:19:46.449Z,8.43
2024-03-26T11:20:46.431Z,8.43
2024-03-26T11:21:47.398Z,8.40
2024-03-26T11:22:46.415Z,8.37
2024-03-26T11:23:46.391Z,8.40
2024-03-26T11:24:46.385Z,8.43
2024-03-26T11:25:46.374Z,8.44
2024-03-26T11:26:46.377Z,8.45
2024-03-26T11:27:46.382Z,8.47
2024-03-26T11:28:46.334Z,8.47
2024-03-26T11:29:46.344Z,8.48
2024-03-26T11:30:46.303Z,8.47
2024-03-26T11:31:46.402Z,8.50
2024-03-26T11:32:46.322Z,8.52
2024-03-26T11:33:46.292Z,8.52
2024-03-26T11:34:46.320Z,8.53
2024-03-26T11:35:46.264Z,8.59
2024-03-26T11:36:46.248Z,8.61
2024-03-26T11:37:46.278Z,8.61
2024-03-26T11:38:46.239Z,8.66
2024-03-26T11:39:46.216Z,8.68
2024-03-26T11:40:46.230Z,8.71
2024-03-26T11:41:46.204Z,8.74
2024-03-26T11:42:46.218Z,8.74
2024-03-26T11:43:46.205Z,8.77
2024-03-26T11:44:46.151Z,8.80
2024-03-26T11:45:46.153Z,8.83
2024-03-26T11:46:46.143Z,8.86
2024-03-26T11:47:46.170Z,8.86
2024-03-26T11:48:46.150Z,8.91
2024-03-26T11:49:46.105Z,8.89
2024-03-26T11:50:46.092Z,8.89
2024-03-26T11:51:46.096Z,8.91
2024-03-26T11:52:46.100Z,8.91
2024-03-26T11:53:46.062Z,8.95
2024-03-26T11:54:46.130Z,8.94
2024-03-26T11:55:46.122Z,8.92
2024-03-26T11:56:46.040Z,8.99
2024-03-26T11:57:46.051Z,8.98
2024-03-26T11:58:46.013Z,8.96
2024-03-26T11:59:46.009Z,9.01
2024-03-26T12:00:45.981Z,9.08
2024-03-26T12:01:45.970Z,9.14
2024-03-26T12:02:45.999Z,9.17
2024-03-26T12:03:45.992Z,9.18
2024-03-26T12:04:45.977Z,9.17
2024-03-26T12:05:45.948Z,9.17
2024-03-26T12:06:46.054Z,9.17
2024-03-26T12:07:45.910Z,9.11
2024-03-26T12:08:45.922Z,9.13
2024-03-26T12:09:45.922Z,9.11
2024-03-26T12:10:45.876Z,9.11
2024-03-26T12:11:45.885Z,9.11
2024-03-26T12:12:45.888Z,9.05
2024-03-26T12:13:45.879Z,9.08
2024-03-26T12:14:45.862Z,9.10
2024-03-26T12:15:45.836Z,9.13
2024-03-26T12:16:45.817Z,9.14
2024-03-26T12:17:45.810Z,9.14
2024-03-26T12:18:45.905Z,9.17
2024-03-26T12:19:45.839Z,9.18
2024-03-26T12:20:45.771Z,9.20
2024-03-26T12:21:45.964Z,9.24
2024-03-26T12:22:45.747Z,9.32
2024-03-26T12:23:45.753Z,9.24
2024-03-26T12:24:45.733Z,9.33
2024-03-26T12:25:45.760Z,9.23
2024-03-26T12:26:45.717Z,9.28
2024-03-26T12:27:46.757Z,9.32
2024-03-26T12:28:45.768Z,9.35
2024-03-26T12:29:45.679Z,9.38
2024-03-26T12:30:45.683Z,9.46
2024-03-26T12:31:45.666Z,9.42
2024-03-26T12:32:45.637Z,9.46
2024-03-26T12:33:47.484Z,9.40
2024-03-26T12:34:45.631Z,9.42
2024-03-26T12:35:45.771Z,9.42
2024-03-26T12:36:46.381Z,9.43
2024-03-26T12:37:45.627Z,9.50
2024-03-26T12:38:45.613Z,9.46
2024-03-26T12:39:45.728Z,9.47
2024-03-26T12:40:45.555Z,9.39
2024-03-26T12:41:45.591Z,9.33
2024-03-26T12:42:45.538Z,9.29
2024-03-26T12:43:45.564Z,9.29
2024-03-26T12:44:45.505Z,9.31
2024-03-26T12:45:45.508Z,9.33
2024-03-26T12:46:45.523Z,9.29
2024-03-26T12:47:45.517Z,9.33
2024-03-26T12:48:45.484Z,9.31
2024-03-26T12:49:45.464Z,9.38
2024-03-26T12:50:45.460Z,9.39
2024-03-26T12:51:45.504Z,9.46
2024-03-26T12:52:45.686Z,9.48
2024-03-26T12:53:46.374Z,9.53
2024-03-26T12:54:45.500Z,9.53
2024-03-26T12:55:45.457Z,9.54
2024-03-26T12:56:45.505Z,9.57
2024-03-26T12:57:45.405Z,9.60
2024-03-26T12:58:45.358Z,9.60
2024-03-26T12:59:45.351Z,9.64
2024-03-26T13:00:45.336Z,9.66
2024-03-26T13:01:45.343Z,9.76
2024-03-26T13:02:45.358Z,9.81
2024-03-26T13:03:45.343Z,9.84
2024-03-26T13:04:45.306Z,9.87
2024-03-26T13:05:45.290Z,9.89
2024-03-26T13:06:45.291Z,9.86
2024-03-26T13:07:45.300Z,9.94
2024-03-26T13:08:45.278Z,10.05
2024-03-26T13:09:45.250Z,10.14
2024-03-26T13:10:45.254Z,10.14
2024-03-26T13:11:45.227Z,10.09
2024-03-26T13:12:45.262Z,10.07
2024-03-26T13:13:45.200Z,10.07
2024-03-26T13:14:45.187Z,10.07
2024-03-26T13:15:45.193Z,10.02
2024-03-26T13:16:45.163Z,10.01
2024-03-26T13:17:45.157Z,10.01
2024-03-26T13:18:45.160Z,10.04